Kennicott — WCY2920 — position and weather

sailwx.info

Track history (hours):
 
Tides and Currents Weather Stations Pressure Air Temp Water Temp Dewpoint Dewpoint Depression Visibility Wind Speed Wind Dir Waves Ship Positions

Kennicott

Owner: ALASKA, STATE OF, Anchorage, AK. More information available from US FCC via Universal Licensing System and Coast Guard Vessel Documentation Center.

Last reported at 2020-Sep-19 07:30 UTC. Time now 2020-Sep-19 09:39 UTC.
Position N 49°23' W 124°06'.

Type: Passenger vessel. MMSI: 368250000.

Date/timePositionNaut miles runAvg speedWind from/ knotsBaromVisibWave heightAir tempDewpointWater temp
2020-Sep-19 07:30N 49°23' W 124°06'815.3
2020-Sep-19 07:00N 49°25' W 124°17'3015.0
2020-Sep-19 05:00N 49°46' W 124°51'714.5
2020-Sep-19 04:30N 49°51' W 124°58'2311.7
2020-Sep-19 02:30N 50°09' W 125°21'1111.0
2020-Sep-19 01:30N 50°20' W 125°26'8913.3
2020-Sep-18 18:49N 50°58' W 127°32'1316.3
2020-Sep-18 18:00N 51°07' W 127°47'4715.8
2020-Sep-18 15:00N 51°47' W 128°29'2516.7
2020-Sep-18 13:30N 52°10' W 128°44'5416.5
2020-Sep-18 10:14N 52°58' W 129°26'4916.3
2020-Sep-18 07:15N 53°36' W 130°17'416.1
2020-Sep-18 06:58N 53°38' W 130°23'3216.1
2020-Sep-18 05:00N 54°02' W 130°59'3616.3
2020-Sep-18 02:48N 54°38' W 131°00'  
Track history (hours):
 
Tides and Currents Weather Stations Pressure Air Temp Water Temp Dewpoint Dewpoint Depression Visibility Wind Speed Wind Dir Waves Ship Positions

Kennicott

Owner: ALASKA, STATE OF, Anchorage, AK. More information available from US FCC via Universal Licensing System and Coast Guard Vessel Documentation Center.

Last reported at 2020-Sep-19 07:30 UTC. Time now 2020-Sep-19 09:39 UTC.
Position N 49°23' W 124°06'.

Type: Passenger vessel. MMSI: 368250000.

Date/timePositionNaut miles runAvg speedWind from/ knotsBaromVisibWave heightAir tempDewpointWater temp
2020-Sep-19 07:30N 49°23' W 124°06'815.3
2020-Sep-19 07:00N 49°25' W 124°17'3015.0
2020-Sep-19 05:00N 49°46' W 124°51'714.5
2020-Sep-19 04:30N 49°51' W 124°58'2311.7
2020-Sep-19 02:30N 50°09' W 125°21'1111.0
2020-Sep-19 01:30N 50°20' W 125°26'8913.3
2020-Sep-18 18:49N 50°58' W 127°32'1316.3
2020-Sep-18 18:00N 51°07' W 127°47'4715.8
2020-Sep-18 15:00N 51°47' W 128°29'2516.7
2020-Sep-18 13:30N 52°10' W 128°44'5416.5
2020-Sep-18 10:14N 52°58' W 129°26'4916.3
2020-Sep-18 07:15N 53°36' W 130°17'416.1
2020-Sep-18 06:58N 53°38' W 130°23'3216.1
2020-Sep-18 05:00N 54°02' W 130°59'3616.3
2020-Sep-18 02:48N 54°38' W 131°00'  

Dump ship's entire track history